sensor_id;sensor_type;location;lat;lon;timestamp;P1;durP1;ratioP1;P2;durP2;ratioP2
17658;SDS011;8948;51.534;8.262;2022-09-09T00:02:36;5.63;;;1.52;;
17658;SDS011;8948;51.534;8.262;2022-09-09T00:07:43;7.22;;;1.83;;
17658;SDS011;8948;51.534;8.262;2022-09-09T00:12:55;5.38;;;1.83;;
17658;SDS011;8948;51.534;8.262;2022-09-09T00:23:25;4.07;;;1.58;;
17658;SDS011;8948;51.534;8.262;2022-09-09T00:28:30;3.60;;;1.30;;
17658;SDS011;8948;51.534;8.262;2022-09-09T00:33:35;6.53;;;1.85;;
17658;SDS011;8948;51.534;8.262;2022-09-09T00:38:40;4.95;;;1.40;;
17658;SDS011;8948;51.534;8.262;2022-09-09T00:43:46;5.40;;;1.42;;
17658;SDS011;8948;51.534;8.262;2022-09-09T00:49:05;4.45;;;1.40;;
17658;SDS011;8948;51.534;8.262;2022-09-09T00:54:27;4.25;;;1.40;;
17658;SDS011;8948;51.534;8.262;2022-09-09T01:04:46;6.00;;;1.15;;
17658;SDS011;8948;51.534;8.262;2022-09-09T01:15:12;8.75;;;1.65;;
17658;SDS011;8948;51.534;8.262;2022-09-09T01:20:23;5.75;;;1.60;;
17658;SDS011;8948;51.534;8.262;2022-09-09T01:31:14;10.27;;;1.55;;
17658;SDS011;8948;51.534;8.262;2022-09-09T01:36:43;3.35;;;1.33;;
17658;SDS011;8948;51.534;8.262;2022-09-09T01:42:06;3.83;;;1.30;;
17658;SDS011;8948;51.534;8.262;2022-09-09T01:47:10;5.72;;;1.27;;
17658;SDS011;8948;51.534;8.262;2022-09-09T01:52:10;5.60;;;1.42;;
17658;SDS011;8948;51.534;8.262;2022-09-09T01:57:15;3.75;;;1.35;;
17658;SDS011;8948;51.534;8.262;2022-09-09T02:02:32;5.60;;;1.42;;
17658;SDS011;8948;51.534;8.262;2022-09-09T02:07:47;8.43;;;1.20;;
17658;SDS011;8948;51.534;8.262;2022-09-09T02:12:50;3.70;;;1.23;;
17658;SDS011;8948;51.534;8.262;2022-09-09T02:17:55;6.10;;;1.40;;
17658;SDS011;8948;51.534;8.262;2022-09-09T02:22:58;3.83;;;1.48;;
17658;SDS011;8948;51.534;8.262;2022-09-09T02:28:01;3.72;;;1.50;;
17658;SDS011;8948;51.534;8.262;2022-09-09T02:33:06;3.47;;;1.20;;
17658;SDS011;8948;51.534;8.262;2022-09-09T02:38:11;6.57;;;1.60;;
17658;SDS011;8948;51.534;8.262;2022-09-09T02:43:14;11.00;;;2.15;;
17658;SDS011;8948;51.534;8.262;2022-09-09T02:58:50;8.05;;;1.80;;
17658;SDS011;8948;51.534;8.262;2022-09-09T03:03:51;6.45;;;1.63;;
17658;SDS011;8948;51.534;8.262;2022-09-09T03:08:52;3.92;;;1.58;;
17658;SDS011;8948;51.534;8.262;2022-09-09T03:13:53;6.30;;;1.60;;
17658;SDS011;8948;51.534;8.262;2022-09-09T03:18:55;6.65;;;1.52;;
17658;SDS011;8948;51.534;8.262;2022-09-09T03:23:56;7.60;;;1.63;;
17658;SDS011;8948;51.534;8.262;2022-09-09T03:28:57;4.60;;;1.60;;
17658;SDS011;8948;51.534;8.262;2022-09-09T03:34:00;8.30;;;1.60;;
17658;SDS011;8948;51.534;8.262;2022-09-09T03:39:00;4.85;;;1.63;;
17658;SDS011;8948;51.534;8.262;2022-09-09T03:44:03;4.07;;;1.83;;
17658;SDS011;8948;51.534;8.262;2022-09-09T03:49:03;7.45;;;1.60;;
17658;SDS011;8948;51.534;8.262;2022-09-09T03:54:04;3.70;;;1.33;;
17658;SDS011;8948;51.534;8.262;2022-09-09T03:59:08;6.75;;;1.60;;
17658;SDS011;8948;51.534;8.262;2022-09-09T04:04:11;6.13;;;1.55;;
17658;SDS011;8948;51.534;8.262;2022-09-09T04:09:12;4.85;;;1.30;;
17658;SDS011;8948;51.534;8.262;2022-09-09T04:14:12;7.95;;;1.60;;
17658;SDS011;8948;51.534;8.262;2022-09-09T04:19:13;4.50;;;1.55;;
17658;SDS011;8948;51.534;8.262;2022-09-09T04:24:14;5.60;;;1.40;;
17658;SDS011;8948;51.534;8.262;2022-09-09T04:29:16;5.10;;;1.60;;
17658;SDS011;8948;51.534;8.262;2022-09-09T04:34:17;9.43;;;2.00;;
17658;SDS011;8948;51.534;8.262;2022-09-09T04:39:17;8.00;;;1.80;;
17658;SDS011;8948;51.534;8.262;2022-09-09T04:44:19;6.50;;;2.08;;
17658;SDS011;8948;51.534;8.262;2022-09-09T04:49:20;8.77;;;1.63;;
17658;SDS011;8948;51.534;8.262;2022-09-09T04:54:20;6.90;;;1.48;;
17658;SDS011;8948;51.534;8.262;2022-09-09T04:59:21;6.18;;;1.40;;
17658;SDS011;8948;51.534;8.262;2022-09-09T05:04:22;4.15;;;1.58;;
17658;SDS011;8948;51.534;8.262;2022-09-09T05:09:22;4.88;;;1.42;;
17658;SDS011;8948;51.534;8.262;2022-09-09T05:14:23;5.75;;;1.73;;
17658;SDS011;8948;51.534;8.262;2022-09-09T05:19:23;5.18;;;1.40;;
17658;SDS011;8948;51.534;8.262;2022-09-09T05:24:24;4.28;;;1.60;;
17658;SDS011;8948;51.534;8.262;2022-09-09T05:29:25;8.85;;;1.90;;
17658;SDS011;8948;51.534;8.262;2022-09-09T05:34:26;8.93;;;2.10;;
17658;SDS011;8948;51.534;8.262;2022-09-09T05:39:27;5.93;;;1.85;;
17658;SDS011;8948;51.534;8.262;2022-09-09T05:44:27;8.38;;;1.60;;
17658;SDS011;8948;51.534;8.262;2022-09-09T05:49:29;5.22;;;1.50;;
17658;SDS011;8948;51.534;8.262;2022-09-09T05:54:29;5.35;;;1.52;;
17658;SDS011;8948;51.534;8.262;2022-09-09T05:59:30;6.70;;;1.70;;
17658;SDS011;8948;51.534;8.262;2022-09-09T06:04:32;8.18;;;1.67;;
17658;SDS011;8948;51.534;8.262;2022-09-09T06:09:32;7.05;;;2.15;;
17658;SDS011;8948;51.534;8.262;2022-09-09T06:14:33;8.73;;;1.80;;
17658;SDS011;8948;51.534;8.262;2022-09-09T06:19:33;9.45;;;2.00;;
17658;SDS011;8948;51.534;8.262;2022-09-09T06:24:34;7.05;;;1.60;;
17658;SDS011;8948;51.534;8.262;2022-09-09T06:29:35;5.60;;;1.50;;
17658;SDS011;8948;51.534;8.262;2022-09-09T06:34:35;6.90;;;1.65;;
17658;SDS011;8948;51.534;8.262;2022-09-09T06:39:36;7.03;;;1.80;;
17658;SDS011;8948;51.534;8.262;2022-09-09T06:44:37;6.85;;;1.70;;
17658;SDS011;8948;51.534;8.262;2022-09-09T06:49:37;9.45;;;1.98;;
17658;SDS011;8948;51.534;8.262;2022-09-09T06:54:38;5.97;;;1.83;;
17658;SDS011;8948;51.534;8.262;2022-09-09T06:59:38;7.28;;;2.08;;
17658;SDS011;8948;51.534;8.262;2022-09-09T07:04:39;7.55;;;1.58;;
17658;SDS011;8948;51.534;8.262;2022-09-09T07:09:39;6.07;;;1.45;;
17658;SDS011;8948;51.534;8.262;2022-09-09T07:14:40;3.40;;;0.98;;
17658;SDS011;8948;51.534;8.262;2022-09-09T07:19:41;6.50;;;1.10;;
17658;SDS011;8948;51.534;8.262;2022-09-09T07:24:43;3.17;;;0.90;;
17658;SDS011;8948;51.534;8.262;2022-09-09T07:29:45;3.80;;;1.08;;
17658;SDS011;8948;51.534;8.262;2022-09-09T07:34:45;3.28;;;1.00;;
17658;SDS011;8948;51.534;8.262;2022-09-09T07:39:46;2.42;;;0.95;;
17658;SDS011;8948;51.534;8.262;2022-09-09T07:44:47;4.78;;;1.10;;
17658;SDS011;8948;51.534;8.262;2022-09-09T07:49:48;3.83;;;1.05;;
17658;SDS011;8948;51.534;8.262;2022-09-09T07:54:49;6.47;;;1.63;;
17658;SDS011;8948;51.534;8.262;2022-09-09T07:59:50;5.25;;;1.52;;
17658;SDS011;8948;51.534;8.262;2022-09-09T08:04:52;4.07;;;1.30;;
17658;SDS011;8948;51.534;8.262;2022-09-09T08:09:52;6.10;;;1.35;;
17658;SDS011;8948;51.534;8.262;2022-09-09T08:14:54;8.65;;;1.60;;
17658;SDS011;8948;51.534;8.262;2022-09-09T08:19:55;7.85;;;1.50;;
17658;SDS011;8948;51.534;8.262;2022-09-09T08:24:55;10.35;;;1.63;;
17658;SDS011;8948;51.534;8.262;2022-09-09T08:29:56;6.35;;;1.80;;
17658;SDS011;8948;51.534;8.262;2022-09-09T08:34:56;8.05;;;1.52;;
17658;SDS011;8948;51.534;8.262;2022-09-09T08:39:57;5.93;;;1.33;;
17658;SDS011;8948;51.534;8.262;2022-09-09T08:50:21;6.15;;;1.58;;
17658;SDS011;8948;51.534;8.262;2022-09-09T08:55:43;7.95;;;1.65;;
17658;SDS011;8948;51.534;8.262;2022-09-09T09:11:50;9.10;;;1.70;;
17658;SDS011;8948;51.534;8.262;2022-09-09T09:17:01;7.38;;;1.60;;
17658;SDS011;8948;51.534;8.262;2022-09-09T09:22:10;6.80;;;1.50;;
17658;SDS011;8948;51.534;8.262;2022-09-09T09:27:40;5.60;;;1.63;;
17658;SDS011;8948;51.534;8.262;2022-09-09T09:32:54;6.47;;;1.45;;
17658;SDS011;8948;51.534;8.262;2022-09-09T09:37:58;5.95;;;1.50;;
17658;SDS011;8948;51.534;8.262;2022-09-09T09:43:00;10.02;;;1.60;;
17658;SDS011;8948;51.534;8.262;2022-09-09T09:48:03;9.23;;;1.50;;
17658;SDS011;8948;51.534;8.262;2022-09-09T09:53:20;7.70;;;1.48;;
17658;SDS011;8948;51.534;8.262;2022-09-09T09:58:24;7.38;;;1.63;;
17658;SDS011;8948;51.534;8.262;2022-09-09T10:08:33;4.47;;;1.27;;
17658;SDS011;8948;51.534;8.262;2022-09-09T10:19:01;6.63;;;1.65;;
17658;SDS011;8948;51.534;8.262;2022-09-09T10:29:50;4.13;;;1.25;;
17658;SDS011;8948;51.534;8.262;2022-09-09T10:34:55;5.40;;;1.90;;
17658;SDS011;8948;51.534;8.262;2022-09-09T10:45:17;9.57;;;1.60;;
17658;SDS011;8948;51.534;8.262;2022-09-09T10:50:46;5.70;;;1.58;;
17658;SDS011;8948;51.534;8.262;2022-09-09T10:56:01;9.25;;;1.33;;
17658;SDS011;8948;51.534;8.262;2022-09-09T11:01:12;6.20;;;1.15;;
17658;SDS011;8948;51.534;8.262;2022-09-09T11:06:37;4.22;;;1.33;;
17658;SDS011;8948;51.534;8.262;2022-09-09T11:11:45;8.25;;;1.30;;
17658;SDS011;8948;51.534;8.262;2022-09-09T11:16:58;5.10;;;1.40;;
17658;SDS011;8948;51.534;8.262;2022-09-09T11:27:37;6.68;;;1.30;;
17658;SDS011;8948;51.534;8.262;2022-09-09T11:38:14;6.13;;;1.70;;
17658;SDS011;8948;51.534;8.262;2022-09-09T11:43:49;10.07;;;1.35;;
17658;SDS011;8948;51.534;8.262;2022-09-09T11:48:44;5.72;;;1.27;;
17658;SDS011;8948;51.534;8.262;2022-09-09T11:53:47;5.43;;;1.60;;
17658;SDS011;8948;51.534;8.262;2022-09-09T11:59:04;5.28;;;1.00;;
17658;SDS011;8948;51.534;8.262;2022-09-09T12:09:15;5.28;;;1.15;;
17658;SDS011;8948;51.534;8.262;2022-09-09T12:14:35;4.25;;;1.20;;
17658;SDS011;8948;51.534;8.262;2022-09-09T12:19:37;5.93;;;1.08;;
17658;SDS011;8948;51.534;8.262;2022-09-09T12:24:54;5.88;;;1.15;;
17658;SDS011;8948;51.534;8.262;2022-09-09T12:30:08;4.65;;;1.20;;
17658;SDS011;8948;51.534;8.262;2022-09-09T12:35:21;2.97;;;0.98;;
17658;SDS011;8948;51.534;8.262;2022-09-09T12:40:28;8.15;;;1.20;;
17658;SDS011;8948;51.534;8.262;2022-09-09T12:45:32;4.75;;;1.02;;
17658;SDS011;8948;51.534;8.262;2022-09-09T12:55:52;3.13;;;1.00;;
17658;SDS011;8948;51.534;8.262;2022-09-09T13:00:59;3.47;;;1.00;;
17658;SDS011;8948;51.534;8.262;2022-09-09T13:06:12;3.80;;;0.82;;
17658;SDS011;8948;51.534;8.262;2022-09-09T13:11:53;3.03;;;0.90;;
17658;SDS011;8948;51.534;8.262;2022-09-09T13:16:54;3.55;;;0.85;;
17658;SDS011;8948;51.534;8.262;2022-09-09T13:21:57;3.40;;;1.00;;
17658;SDS011;8948;51.534;8.262;2022-09-09T13:27:04;3.60;;;0.98;;
17658;SDS011;8948;51.534;8.262;2022-09-09T13:32:24;5.75;;;1.40;;
17658;SDS011;8948;51.534;8.262;2022-09-09T13:37:36;3.22;;;0.98;;
17658;SDS011;8948;51.534;8.262;2022-09-09T13:42:39;4.82;;;1.05;;
17658;SDS011;8948;51.534;8.262;2022-09-09T13:47:42;5.45;;;1.15;;
17658;SDS011;8948;51.534;8.262;2022-09-09T13:52:43;4.05;;;1.17;;
17658;SDS011;8948;51.534;8.262;2022-09-09T13:57:50;5.65;;;1.10;;
17658;SDS011;8948;51.534;8.262;2022-09-09T14:02:51;5.28;;;1.20;;
17658;SDS011;8948;51.534;8.262;2022-09-09T14:07:52;2.35;;;0.98;;
17658;SDS011;8948;51.534;8.262;2022-09-09T14:12:52;3.15;;;1.00;;
17658;SDS011;8948;51.534;8.262;2022-09-09T14:17:53;2.70;;;0.88;;
17658;SDS011;8948;51.534;8.262;2022-09-09T14:22:53;5.07;;;1.00;;
17658;SDS011;8948;51.534;8.262;2022-09-09T14:27:54;2.97;;;1.17;;
17658;SDS011;8948;51.534;8.262;2022-09-09T14:32:56;12.52;;;1.00;;
17658;SDS011;8948;51.534;8.262;2022-09-09T14:37:56;4.82;;;1.10;;
17658;SDS011;8948;51.534;8.262;2022-09-09T14:42:57;4.55;;;1.10;;
17658;SDS011;8948;51.534;8.262;2022-09-09T14:47:58;2.30;;;0.75;;
17658;SDS011;8948;51.534;8.262;2022-09-09T14:52:59;6.25;;;0.90;;
17658;SDS011;8948;51.534;8.262;2022-09-09T14:58:00;5.45;;;1.10;;
17658;SDS011;8948;51.534;8.262;2022-09-09T15:03:00;4.22;;;1.00;;
17658;SDS011;8948;51.534;8.262;2022-09-09T15:08:01;2.35;;;0.90;;
17658;SDS011;8948;51.534;8.262;2022-09-09T15:13:02;7.75;;;1.13;;
17658;SDS011;8948;51.534;8.262;2022-09-09T15:18:02;5.03;;;1.00;;
17658;SDS011;8948;51.534;8.262;2022-09-09T15:23:03;2.35;;;0.68;;
17658;SDS011;8948;51.534;8.262;2022-09-09T15:28:04;3.35;;;1.20;;
17658;SDS011;8948;51.534;8.262;2022-09-09T15:33:07;4.35;;;1.00;;
17658;SDS011;8948;51.534;8.262;2022-09-09T15:38:08;6.57;;;0.82;;
17658;SDS011;8948;51.534;8.262;2022-09-09T15:43:09;6.45;;;0.95;;
17658;SDS011;8948;51.534;8.262;2022-09-09T15:48:10;2.58;;;0.93;;
17658;SDS011;8948;51.534;8.262;2022-09-09T15:53:11;6.63;;;1.00;;
17658;SDS011;8948;51.534;8.262;2022-09-09T15:58:12;3.22;;;0.70;;
17658;SDS011;8948;51.534;8.262;2022-09-09T16:03:12;3.13;;;0.80;;
17658;SDS011;8948;51.534;8.262;2022-09-09T16:08:13;2.53;;;0.75;;
17658;SDS011;8948;51.534;8.262;2022-09-09T16:13:13;3.10;;;0.90;;
17658;SDS011;8948;51.534;8.262;2022-09-09T16:18:14;3.40;;;0.88;;
17658;SDS011;8948;51.534;8.262;2022-09-09T16:23:15;4.18;;;1.15;;
17658;SDS011;8948;51.534;8.262;2022-09-09T16:28:15;3.85;;;0.80;;
17658;SDS011;8948;51.534;8.262;2022-09-09T16:33:16;1.75;;;0.80;;
17658;SDS011;8948;51.534;8.262;2022-09-09T16:38:17;2.75;;;0.90;;
17658;SDS011;8948;51.534;8.262;2022-09-09T16:43:18;3.95;;;0.70;;
17658;SDS011;8948;51.534;8.262;2022-09-09T16:48:18;2.92;;;1.00;;
17658;SDS011;8948;51.534;8.262;2022-09-09T16:53:20;4.75;;;1.00;;
17658;SDS011;8948;51.534;8.262;2022-09-09T16:58:20;5.45;;;1.08;;
17658;SDS011;8948;51.534;8.262;2022-09-09T17:03:21;2.95;;;0.95;;
17658;SDS011;8948;51.534;8.262;2022-09-09T17:08:21;3.22;;;0.95;;
17658;SDS011;8948;51.534;8.262;2022-09-09T17:13:22;4.70;;;1.00;;
17658;SDS011;8948;51.534;8.262;2022-09-09T17:18:25;3.95;;;1.17;;
17658;SDS011;8948;51.534;8.262;2022-09-09T17:23:28;5.22;;;1.08;;
17658;SDS011;8948;51.534;8.262;2022-09-09T17:28:28;7.45;;;1.27;;
17658;SDS011;8948;51.534;8.262;2022-09-09T17:33:31;11.38;;;1.65;;
17658;SDS011;8948;51.534;8.262;2022-09-09T17:38:36;4.20;;;1.10;;
17658;SDS011;8948;51.534;8.262;2022-09-09T17:43:38;4.60;;;1.77;;
17658;SDS011;8948;51.534;8.262;2022-09-09T17:48:39;6.80;;;1.52;;
17658;SDS011;8948;51.534;8.262;2022-09-09T17:53:42;3.28;;;1.08;;
17658;SDS011;8948;51.534;8.262;2022-09-09T17:58:44;1.98;;;0.82;;
17658;SDS011;8948;51.534;8.262;2022-09-09T18:03:45;5.57;;;1.48;;
17658;SDS011;8948;51.534;8.262;2022-09-09T18:08:51;5.05;;;1.10;;
17658;SDS011;8948;51.534;8.262;2022-09-09T18:13:54;3.20;;;1.13;;
17658;SDS011;8948;51.534;8.262;2022-09-09T18:18:57;3.83;;;1.10;;
17658;SDS011;8948;51.534;8.262;2022-09-09T18:23:59;1.25;;;0.90;;
17658;SDS011;8948;51.534;8.262;2022-09-09T18:29:01;5.45;;;1.10;;
17658;SDS011;8948;51.534;8.262;2022-09-09T18:34:05;4.20;;;1.20;;
17658;SDS011;8948;51.534;8.262;2022-09-09T18:39:09;3.25;;;0.93;;
17658;SDS011;8948;51.534;8.262;2022-09-09T18:44:12;3.05;;;0.90;;
17658;SDS011;8948;51.534;8.262;2022-09-09T18:49:15;2.65;;;0.90;;
17658;SDS011;8948;51.534;8.262;2022-09-09T18:54:17;2.08;;;0.85;;
17658;SDS011;8948;51.534;8.262;2022-09-09T18:59:20;3.15;;;0.80;;
17658;SDS011;8948;51.534;8.262;2022-09-09T19:04:23;1.80;;;0.80;;
17658;SDS011;8948;51.534;8.262;2022-09-09T19:09:26;2.90;;;0.95;;
17658;SDS011;8948;51.534;8.262;2022-09-09T19:14:28;3.25;;;0.93;;
17658;SDS011;8948;51.534;8.262;2022-09-09T19:19:30;1.05;;;0.70;;
17658;SDS011;8948;51.534;8.262;2022-09-09T19:24:32;2.33;;;0.85;;
17658;SDS011;8948;51.534;8.262;2022-09-09T19:29:34;2.90;;;0.70;;
17658;SDS011;8948;51.534;8.262;2022-09-09T19:34:38;1.20;;;0.77;;
17658;SDS011;8948;51.534;8.262;2022-09-09T19:39:39;1.50;;;0.80;;
17658;SDS011;8948;51.534;8.262;2022-09-09T19:44:39;1.77;;;0.80;;
17658;SDS011;8948;51.534;8.262;2022-09-09T19:49:40;1.88;;;0.70;;
17658;SDS011;8948;51.534;8.262;2022-09-09T19:54:41;2.90;;;0.80;;
17658;SDS011;8948;51.534;8.262;2022-09-09T19:59:42;2.10;;;0.80;;
17658;SDS011;8948;51.534;8.262;2022-09-09T20:04:42;1.13;;;0.60;;
17658;SDS011;8948;51.534;8.262;2022-09-09T20:09:43;3.35;;;0.80;;
17658;SDS011;8948;51.534;8.262;2022-09-09T20:14:44;3.85;;;0.93;;
17658;SDS011;8948;51.534;8.262;2022-09-09T20:19:44;4.93;;;1.23;;
17658;SDS011;8948;51.534;8.262;2022-09-09T20:24:45;1.30;;;0.73;;
17658;SDS011;8948;51.534;8.262;2022-09-09T20:29:46;2.25;;;0.77;;
17658;SDS011;8948;51.534;8.262;2022-09-09T20:34:46;4.30;;;1.15;;
17658;SDS011;8948;51.534;8.262;2022-09-09T20:39:47;2.97;;;1.08;;
17658;SDS011;8948;51.534;8.262;2022-09-09T20:44:47;2.40;;;1.00;;
17658;SDS011;8948;51.534;8.262;2022-09-09T20:49:48;2.38;;;1.00;;
17658;SDS011;8948;51.534;8.262;2022-09-09T20:54:49;5.38;;;1.17;;
17658;SDS011;8948;51.534;8.262;2022-09-09T20:59:50;4.97;;;1.40;;
17658;SDS011;8948;51.534;8.262;2022-09-09T21:04:50;3.83;;;1.10;;
17658;SDS011;8948;51.534;8.262;2022-09-09T21:09:51;5.43;;;1.45;;
17658;SDS011;8948;51.534;8.262;2022-09-09T21:14:52;4.38;;;1.15;;
17658;SDS011;8948;51.534;8.262;2022-09-09T21:19:52;6.13;;;1.40;;
17658;SDS011;8948;51.534;8.262;2022-09-09T21:24:53;6.32;;;1.55;;
17658;SDS011;8948;51.534;8.262;2022-09-09T21:29:53;4.38;;;1.40;;
17658;SDS011;8948;51.534;8.262;2022-09-09T21:34:54;3.80;;;1.15;;
17658;SDS011;8948;51.534;8.262;2022-09-09T21:39:55;2.80;;;1.10;;
17658;SDS011;8948;51.534;8.262;2022-09-09T21:44:56;5.38;;;1.35;;
17658;SDS011;8948;51.534;8.262;2022-09-09T21:49:56;5.07;;;1.20;;
17658;SDS011;8948;51.534;8.262;2022-09-09T21:54:58;3.72;;;1.38;;
17658;SDS011;8948;51.534;8.262;2022-09-09T21:59:59;6.03;;;1.50;;
17658;SDS011;8948;51.534;8.262;2022-09-09T22:05:00;4.32;;;1.30;;
17658;SDS011;8948;51.534;8.262;2022-09-09T22:10:00;4.13;;;1.20;;
17658;SDS011;8948;51.534;8.262;2022-09-09T22:15:01;4.45;;;1.50;;
17658;SDS011;8948;51.534;8.262;2022-09-09T22:20:02;2.97;;;1.25;;
17658;SDS011;8948;51.534;8.262;2022-09-09T22:25:04;2.67;;;1.30;;
17658;SDS011;8948;51.534;8.262;2022-09-09T22:30:06;7.15;;;1.80;;
17658;SDS011;8948;51.534;8.262;2022-09-09T22:35:07;3.20;;;1.08;;
17658;SDS011;8948;51.534;8.262;2022-09-09T22:40:08;5.57;;;1.63;;
17658;SDS011;8948;51.534;8.262;2022-09-09T22:45:09;5.90;;;1.58;;
17658;SDS011;8948;51.534;8.262;2022-09-09T22:50:10;6.85;;;1.60;;
17658;SDS011;8948;51.534;8.262;2022-09-09T22:55:11;5.45;;;1.52;;
17658;SDS011;8948;51.534;8.262;2022-09-09T23:00:11;4.95;;;1.70;;
17658;SDS011;8948;51.534;8.262;2022-09-09T23:05:12;3.33;;;1.60;;
17658;SDS011;8948;51.534;8.262;2022-09-09T23:10:13;4.03;;;1.55;;
17658;SDS011;8948;51.534;8.262;2022-09-09T23:15:14;8.05;;;1.80;;
17658;SDS011;8948;51.534;8.262;2022-09-09T23:20:16;5.38;;;1.90;;
17658;SDS011;8948;51.534;8.262;2022-09-09T23:25:18;8.80;;;2.15;;
17658;SDS011;8948;51.534;8.262;2022-09-09T23:30:19;4.13;;;1.92;;
17658;SDS011;8948;51.534;8.262;2022-09-09T23:35:20;4.47;;;2.08;;
17658;SDS011;8948;51.534;8.262;2022-09-09T23:40:21;7.80;;;2.28;;
17658;SDS011;8948;51.534;8.262;2022-09-09T23:45:22;4.38;;;1.70;;
17658;SDS011;8948;51.534;8.262;2022-09-09T23:50:22;6.07;;;1.80;;
17658;SDS011;8948;51.534;8.262;2022-09-09T23:55:23;10.70;;;2.67;;
